createdAt,value
2019-03-01T00:01:13.837Z,3.80
2019-03-01T00:06:28.169Z,3.73
2019-03-01T00:11:33.418Z,4.30
2019-03-01T00:17:00.516Z,4.33
2019-03-01T00:22:21.565Z,3.90
2019-03-01T00:27:48.409Z,4.47
2019-03-01T00:32:50.861Z,5.17
2019-03-01T00:38:20.894Z,5.13
2019-03-01T00:43:29.036Z,4.97
2019-03-01T00:48:31.548Z,5.50
2019-03-01T00:53:34.018Z,5.90
2019-03-01T00:58:36.485Z,6.20
2019-03-01T01:03:38.947Z,6.57
2019-03-01T01:08:41.980Z,6.80
2019-03-01T01:13:44.443Z,6.60
2019-03-01T01:18:46.893Z,6.60
2019-03-01T01:23:49.353Z,5.83
2019-03-01T01:28:51.831Z,5.90
2019-03-01T01:33:54.281Z,5.87
2019-03-01T01:38:56.734Z,5.10
2019-03-01T01:43:59.198Z,5.27
2019-03-01T01:49:01.651Z,4.93
2019-03-01T01:54:04.112Z,5.13
2019-03-01T01:59:06.591Z,5.20
2019-03-01T02:04:09.040Z,4.00
2019-03-01T02:09:17.259Z,4.30
2019-03-01T02:14:19.723Z,4.23
2019-03-01T02:19:22.169Z,4.70
2019-03-01T02:24:24.626Z,4.60
2019-03-01T02:29:27.090Z,3.97
2019-03-01T02:34:29.558Z,4.33
2019-03-01T02:39:32.016Z,3.70
2019-03-01T02:44:34.475Z,4.37
2019-03-01T02:49:36.944Z,2.97
2019-03-01T02:54:39.402Z,3.40
2019-03-01T02:59:41.854Z,2.90
2019-03-01T03:04:44.322Z,3.00
2019-03-01T03:09:46.784Z,2.97
2019-03-01T03:14:49.228Z,2.87
2019-03-01T03:19:51.700Z,3.47
2019-03-01T03:24:54.153Z,2.77
2019-03-01T03:29:56.606Z,2.83
2019-03-01T03:34:59.077Z,2.97
2019-03-01T03:40:01.547Z,2.73
2019-03-01T03:45:04.019Z,2.60
2019-03-01T03:50:06.490Z,2.40
2019-03-01T03:55:08.936Z,2.60
2019-03-01T04:00:20.300Z,2.87
2019-03-01T04:05:22.749Z,2.70
2019-03-01T04:10:25.203Z,2.77
2019-03-01T04:15:27.676Z,2.90
2019-03-01T04:20:30.177Z,2.90
2019-03-01T04:25:32.576Z,3.30
2019-03-01T04:30:35.024Z,3.63
2019-03-01T04:35:37.502Z,3.60
2019-03-01T04:40:39.943Z,3.93
2019-03-01T04:45:42.411Z,3.87
2019-03-01T04:50:44.870Z,3.53
2019-03-01T04:55:47.339Z,3.67
2019-03-01T05:00:49.784Z,3.13
2019-03-01T05:05:52.245Z,3.60
2019-03-01T05:10:54.707Z,3.23
2019-03-01T05:15:57.171Z,3.30
2019-03-01T05:20:59.635Z,3.53
2019-03-01T05:26:02.081Z,3.13
2019-03-01T05:31:04.536Z,3.37
2019-03-01T05:36:07.001Z,3.70
2019-03-01T05:41:09.471Z,4.13
2019-03-01T05:46:11.931Z,2.87
2019-03-01T05:51:14.411Z,3.10
2019-03-01T05:56:16.872Z,2.53
2019-03-01T06:01:28.057Z,2.60
2019-03-01T06:06:42.326Z,2.30
2019-03-01T06:12:02.941Z,2.37
2019-03-01T06:17:26.886Z,2.80
2019-03-01T06:22:38.373Z,2.90
2019-03-01T06:27:59.310Z,3.50
2019-03-01T06:33:07.691Z,3.23
2019-03-01T06:38:22.165Z,3.20
2019-03-01T06:43:27.567Z,3.67
2019-03-01T06:48:30.034Z,2.93
2019-03-01T06:53:32.494Z,4.27
2019-03-01T06:58:34.958Z,3.30
2019-03-01T07:03:37.412Z,2.90
2019-03-01T07:08:39.867Z,3.10
2019-03-01T07:13:42.340Z,7.83
2019-03-01T07:18:44.793Z,2.93
2019-03-01T07:23:47.255Z,3.80
2019-03-01T07:28:49.707Z,3.00
2019-03-01T07:33:52.200Z,2.73
2019-03-01T07:38:54.649Z,9.47
2019-03-01T07:43:57.104Z,2.80
2019-03-01T07:48:59.587Z,2.57
2019-03-01T07:54:02.048Z,3.03
2019-03-01T07:59:04.491Z,4.87
2019-03-01T08:04:06.954Z,3.20
2019-03-01T08:09:12.451Z,4.90
2019-03-01T08:14:14.922Z,3.90
2019-03-01T08:19:22.333Z,2.70
2019-03-01T08:24:19.829Z,2.97
2019-03-01T08:29:22.317Z,2.90
2019-03-01T08:34:24.784Z,2.93
2019-03-01T08:39:27.241Z,3.00
2019-03-01T08:44:29.712Z,2.20
2019-03-01T08:49:32.186Z,2.10
2019-03-01T08:54:34.656Z,2.20
2019-03-01T08:59:37.122Z,1.50
2019-03-01T09:04:39.583Z,1.60
2019-03-01T09:09:42.058Z,1.87
2019-03-01T09:14:44.529Z,5.87
2019-03-01T09:19:46.992Z,2.40
2019-03-01T09:24:49.467Z,3.70
2019-03-01T09:29:51.908Z,2.90
2019-03-01T09:34:54.377Z,2.50
2019-03-01T09:40:05.212Z,2.20
2019-03-01T09:44:59.318Z,2.33
2019-03-01T09:50:01.789Z,1.93
2019-03-01T09:55:04.257Z,10.20
2019-03-01T10:00:12.705Z,2.40
2019-03-01T10:05:15.174Z,1.80
2019-03-01T10:10:20.369Z,2.20
2019-03-01T10:15:22.863Z,1.90
2019-03-01T10:20:30.330Z,1.80
2019-03-01T10:25:32.792Z,1.73
2019-03-01T10:30:35.254Z,1.90
2019-03-01T10:35:37.758Z,1.60
2019-03-01T10:40:40.161Z,1.73
2019-03-01T10:45:42.609Z,1.83
2019-03-01T10:50:45.090Z,2.10
2019-03-01T10:55:47.551Z,1.80
2019-03-01T11:00:50.081Z,2.20
2019-03-01T11:05:53.072Z,2.60
2019-03-01T11:10:55.070Z,3.13
2019-03-01T11:15:57.524Z,4.60
2019-03-01T11:20:59.994Z,3.43
2019-03-01T11:31:03.758Z,3.37
2019-03-01T11:36:06.225Z,3.60
2019-03-01T11:41:08.680Z,3.87
2019-03-01T11:46:11.142Z,6.80
2019-03-01T11:51:13.595Z,6.23
2019-03-01T11:56:16.053Z,4.70
2019-03-01T12:01:18.509Z,4.03
2019-03-01T12:06:20.968Z,4.30
2019-03-01T12:11:23.425Z,3.97
2019-03-01T12:16:25.885Z,4.47
2019-03-01T12:21:28.342Z,4.43
2019-03-01T12:26:30.812Z,5.50
2019-03-01T12:31:33.280Z,6.30
2019-03-01T12:36:35.792Z,6.43
2019-03-01T12:41:38.251Z,9.93
2019-03-01T12:46:40.725Z,10.00
2019-03-01T12:51:43.189Z,11.33
2019-03-01T12:56:45.657Z,14.70
2019-03-01T13:01:48.119Z,5.50
2019-03-01T13:06:50.588Z,6.60
2019-03-01T13:11:53.052Z,5.73
2019-03-01T13:16:58.462Z,7.07
2019-03-01T13:21:58.010Z,14.63
2019-03-01T13:27:00.636Z,7.90
2019-03-01T13:32:03.110Z,6.17
2019-03-01T13:37:05.571Z,7.33
2019-03-01T13:42:10.298Z,6.37
2019-03-01T13:47:10.502Z,6.27
2019-03-01T13:52:14.758Z,16.47
2019-03-01T13:57:15.461Z,7.73
2019-03-01T14:02:17.912Z,10.53
2019-03-01T14:07:20.390Z,13.93
2019-03-01T14:12:22.862Z,11.07
2019-03-01T14:17:25.740Z,12.20
2019-03-01T14:22:27.805Z,12.30
2019-03-01T14:27:30.436Z,12.60
2019-03-01T14:32:32.736Z,13.37
2019-03-01T14:37:35.229Z,13.50
2019-03-01T14:42:37.691Z,16.63
2019-03-01T14:47:40.168Z,17.23
2019-03-01T14:52:42.652Z,15.30
2019-03-01T14:57:46.199Z,16.87
2019-03-01T15:02:47.596Z,16.97
2019-03-01T15:07:50.180Z,15.83
2019-03-01T15:12:53.883Z,19.20
2019-03-01T15:17:56.983Z,25.70
2019-03-01T15:22:57.643Z,18.60
2019-03-01T15:28:00.117Z,17.93
2019-03-01T15:33:02.588Z,17.37
2019-03-01T15:38:05.080Z,17.37
2019-03-01T15:43:09.110Z,28.07
2019-03-01T15:48:10.042Z,20.90
2019-03-01T15:53:14.434Z,28.33
2019-03-01T15:58:15.038Z,32.93
2019-03-01T16:03:17.495Z,18.63
2019-03-01T16:08:19.968Z,23.37
2019-03-01T16:13:22.456Z,26.70
2019-03-01T16:18:24.947Z,28.97
2019-03-01T16:23:30.052Z,28.60
2019-03-01T16:28:31.103Z,32.33
2019-03-01T16:33:32.379Z,37.03
2019-03-01T16:38:40.976Z,34.30
2019-03-01T16:43:37.411Z,35.43
2019-03-01T16:48:39.962Z,45.10
2019-03-01T16:53:42.427Z,46.57
2019-03-01T16:58:44.975Z,48.27
2019-03-01T17:03:49.626Z,51.37
2019-03-01T17:08:50.016Z,52.50
2019-03-01T17:13:52.476Z,55.80
2019-03-01T17:18:54.949Z,52.37
2019-03-01T17:23:57.445Z,54.83
2019-03-01T17:29:03.170Z,58.03
2019-03-01T17:34:04.375Z,63.07
2019-03-01T17:39:04.888Z,53.50
2019-03-01T17:44:08.517Z,54.97
2019-03-01T17:49:09.847Z,55.23
2019-03-01T17:54:12.315Z,59.00
2019-03-01T17:59:14.787Z,47.90
2019-03-01T18:04:17.254Z,50.67
2019-03-01T18:09:19.725Z,48.37
2019-03-01T18:14:22.203Z,61.70
2019-03-01T18:19:26.763Z,59.13
2019-03-01T18:24:27.160Z,55.40
2019-03-01T18:29:29.645Z,48.73
2019-03-01T18:34:35.642Z,44.97
2019-03-01T18:39:34.594Z,40.03
2019-03-01T18:44:37.054Z,46.47
2019-03-01T18:49:39.538Z,62.20
2019-03-01T18:54:43.030Z,60.60
2019-03-01T18:59:44.472Z,56.53
2019-03-01T19:04:46.965Z,45.03
2019-03-01T19:09:52.143Z,42.03
2019-03-01T19:14:51.980Z,49.40
2019-03-01T19:19:54.469Z,45.50
2019-03-01T19:24:56.951Z,46.43
2019-03-01T19:29:59.422Z,47.20
2019-03-01T19:35:01.892Z,42.10
2019-03-01T19:40:07.861Z,45.73
2019-03-01T19:45:09.669Z,45.73
2019-03-01T19:50:12.136Z,48.70
2019-03-01T19:55:14.615Z,48.70
2019-03-01T20:00:28.994Z,51.10
2019-03-01T20:05:33.029Z,46.40
2019-03-01T20:10:33.956Z,48.37
2019-03-01T20:15:36.441Z,45.53
2019-03-01T20:20:38.943Z,39.13
2019-03-01T20:25:41.433Z,41.47
2019-03-01T20:30:43.932Z,40.30
2019-03-01T20:35:46.482Z,43.27
2019-03-01T20:40:48.981Z,42.07
2019-03-01T20:45:51.499Z,40.80
2019-03-01T20:50:54.032Z,38.00
2019-03-01T20:55:56.492Z,34.70
2019-03-01T21:01:01.933Z,39.50
2019-03-01T21:06:04.324Z,34.60
2019-03-01T21:11:03.962Z,34.13
2019-03-01T21:16:06.475Z,35.23
2019-03-01T21:21:08.943Z,35.60
2019-03-01T21:26:12.063Z,36.20
2019-03-01T21:31:14.233Z,32.33
2019-03-01T21:36:16.724Z,32.63
2019-03-01T21:41:19.216Z,32.73
2019-03-01T21:46:21.706Z,38.40
2019-03-01T21:51:24.174Z,35.63
2019-03-01T21:56:26.641Z,34.40
2019-03-01T22:01:29.190Z,37.03
2019-03-01T22:06:31.676Z,33.60
2019-03-01T22:11:34.152Z,30.03
2019-03-01T22:16:39.256Z,34.00
2019-03-01T22:21:39.099Z,30.70
2019-03-01T22:26:41.617Z,33.10
2019-03-01T22:31:44.124Z,30.80
2019-03-01T22:36:49.448Z,31.07
2019-03-01T22:41:49.150Z,28.17
2019-03-01T22:46:51.619Z,23.97
2019-03-01T22:51:54.094Z,22.93
2019-03-01T22:56:56.583Z,22.53
2019-03-01T23:01:59.071Z,22.80
2019-03-01T23:07:01.551Z,22.40
2019-03-01T23:12:04.659Z,22.57
2019-03-01T23:17:06.482Z,23.53
2019-03-01T23:22:10.940Z,23.30
2019-03-01T23:27:11.516Z,21.80
2019-03-01T23:32:15.456Z,24.50
2019-03-01T23:37:16.405Z,25.30
2019-03-01T23:42:20.869Z,25.13
2019-03-01T23:47:21.372Z,24.10
2019-03-01T23:52:23.819Z,26.17
2019-03-01T23:57:26.288Z,26.17
